sensor_id;sensor_type;location;lat;lon;timestamp;pressure;altitude;pressure_sealevel;temperature;humidity
83664;BME280;73634;47.068;15.426;2024-02-04T00:00:35;97994.47;;;3.72;75.33
83664;BME280;73634;47.068;15.426;2024-02-04T00:03:02;97996.47;;;3.70;74.67
83664;BME280;73634;47.068;15.426;2024-02-04T00:07:22;97976.38;;;3.49;77.13
83664;BME280;73634;47.068;15.426;2024-02-04T00:09:47;97978.53;;;3.52;77.05
83664;BME280;73634;47.068;15.426;2024-02-04T00:12:13;97975.16;;;3.51;76.71
83664;BME280;73634;47.068;15.426;2024-02-04T00:14:38;97977.38;;;3.48;76.60
83664;BME280;73634;47.068;15.426;2024-02-04T00:17:03;97960.75;;;3.50;76.27
83664;BME280;73634;47.068;15.426;2024-02-04T00:19:29;97955.81;;;3.49;76.53
83664;BME280;73634;47.068;15.426;2024-02-04T00:21:54;97965.97;;;3.44;76.87
83664;BME280;73634;47.068;15.426;2024-02-04T00:24:20;97969.75;;;3.41;77.25
83664;BME280;73634;47.068;15.426;2024-02-04T00:26:45;97966.03;;;3.37;76.79
83664;BME280;73634;47.068;15.426;2024-02-04T00:29:11;97966.47;;;3.34;77.19
83664;BME280;73634;47.068;15.426;2024-02-04T00:34:15;97961.56;;;3.32;77.10
83664;BME280;73634;47.068;15.426;2024-02-04T00:36:40;97967.56;;;3.26;76.94
83664;BME280;73634;47.068;15.426;2024-02-04T00:39:05;97971.34;;;3.24;76.86
83664;BME280;73634;47.068;15.426;2024-02-04T00:41:33;97979.38;;;3.16;77.21
83664;BME280;73634;47.068;15.426;2024-02-04T00:43:58;97960.03;;;3.13;76.98
83664;BME280;73634;47.068;15.426;2024-02-04T00:46:24;97978.81;;;3.14;77.20
83664;BME280;73634;47.068;15.426;2024-02-04T00:48:49;97973.66;;;3.14;76.95
83664;BME280;73634;47.068;15.426;2024-02-04T00:51:14;97964.94;;;3.15;76.90
83664;BME280;73634;47.068;15.426;2024-02-04T00:53:42;97950.38;;;3.09;77.31
83664;BME280;73634;47.068;15.426;2024-02-04T00:56:08;97952.75;;;3.10;76.96
83664;BME280;73634;47.068;15.426;2024-02-04T00:59:41;97952.03;;;3.03;76.97
83664;BME280;73634;47.068;15.426;2024-02-04T01:02:06;97946.97;;;2.96;77.79
83664;BME280;73634;47.068;15.426;2024-02-04T01:04:31;97950.88;;;2.99;78.00
83664;BME280;73634;47.068;15.426;2024-02-04T01:06:57;97946.59;;;2.93;77.83
83664;BME280;73634;47.068;15.426;2024-02-04T01:09:22;97945.38;;;2.95;77.43
83664;BME280;73634;47.068;15.426;2024-02-04T01:11:47;97949.31;;;2.98;77.53
83664;BME280;73634;47.068;15.426;2024-02-04T01:14:13;97951.88;;;2.98;77.41
83664;BME280;73634;47.068;15.426;2024-02-04T01:16:39;97953.75;;;2.91;78.07
83664;BME280;73634;47.068;15.426;2024-02-04T01:21:43;97959.47;;;2.93;78.07
83664;BME280;73634;47.068;15.426;2024-02-04T01:24:09;97958.31;;;2.89;77.92
83664;BME280;73634;47.068;15.426;2024-02-04T01:26:35;97957.88;;;2.92;78.01
83664;BME280;73634;47.068;15.426;2024-02-04T01:29:00;97963.09;;;2.85;78.52
83664;BME280;73634;47.068;15.426;2024-02-04T01:31:26;97968.44;;;2.84;78.05
83664;BME280;73634;47.068;15.426;2024-02-04T01:33:52;97961.31;;;2.86;77.93
83664;BME280;73634;47.068;15.426;2024-02-04T01:36:17;97956.59;;;2.83;78.10
83664;BME280;73634;47.068;15.426;2024-02-04T01:38:43;97964.03;;;2.91;77.88
83664;BME280;73634;47.068;15.426;2024-02-04T01:41:08;97961.38;;;2.97;77.32
83664;BME280;73634;47.068;15.426;2024-02-04T01:45:24;97980.53;;;3.01;77.32
83664;BME280;73634;47.068;15.426;2024-02-04T01:47:50;97962.31;;;3.03;77.51
83664;BME280;73634;47.068;15.426;2024-02-04T01:50:15;97957.31;;;3.08;77.58
83664;BME280;73634;47.068;15.426;2024-02-04T01:52:42;97963.03;;;3.10;77.25
83664;BME280;73634;47.068;15.426;2024-02-04T01:55:09;97959.03;;;3.14;77.40
83664;BME280;73634;47.068;15.426;2024-02-04T01:57:34;97958.25;;;3.14;77.56
83664;BME280;73634;47.068;15.426;2024-02-04T02:00:03;97958.25;;;3.14;77.23
83664;BME280;73634;47.068;15.426;2024-02-04T02:02:34;97963.03;;;3.10;77.40
83664;BME280;73634;47.068;15.426;2024-02-04T02:04:59;97965.38;;;3.12;77.88
83664;BME280;73634;47.068;15.426;2024-02-04T02:10:01;97947.16;;;3.13;78.13
83664;BME280;73634;47.068;15.426;2024-02-04T02:12:35;97923.91;;;3.08;77.50
83664;BME280;73634;47.068;15.426;2024-02-04T02:15:14;97929.97;;;3.14;77.51
83664;BME280;73634;47.068;15.426;2024-02-04T02:18:31;97946.53;;;3.18;77.65
83664;BME280;73634;47.068;15.426;2024-02-04T02:21:16;97942.16;;;3.18;77.64
83664;BME280;73634;47.068;15.426;2024-02-04T02:24:03;97929.81;;;3.09;77.81
83664;BME280;73634;47.068;15.426;2024-02-04T02:26:33;97931.81;;;3.07;78.38
83664;BME280;73634;47.068;15.426;2024-02-04T02:28:59;97932.25;;;3.04;78.31
83664;BME280;73634;47.068;15.426;2024-02-04T02:31:24;97943.31;;;3.04;78.71
83664;BME280;73634;47.068;15.426;2024-02-04T02:35:28;97949.03;;;3.06;77.69
83664;BME280;73634;47.068;15.426;2024-02-04T02:38:25;97943.25;;;3.11;77.56
83664;BME280;73634;47.068;15.426;2024-02-04T02:40:57;97939.81;;;2.98;78.13
83664;BME280;73634;47.068;15.426;2024-02-04T02:43:24;97944.47;;;2.90;78.56
83664;BME280;73634;47.068;15.426;2024-02-04T02:45:51;97939.47;;;2.95;78.18
83664;BME280;73634;47.068;15.426;2024-02-04T02:48:18;97921.63;;;3.00;77.53
83664;BME280;73634;47.068;15.426;2024-02-04T02:50:43;97928.75;;;2.98;77.98
83664;BME280;73634;47.068;15.426;2024-02-04T02:53:09;97929.41;;;2.93;78.03
83664;BME280;73634;47.068;15.426;2024-02-04T02:55:34;97918.97;;;2.88;77.99
83664;BME280;73634;47.068;15.426;2024-02-04T02:59:29;97920.94;;;2.75;78.43
83664;BME280;73634;47.068;15.426;2024-02-04T03:01:55;97926.72;;;2.70;78.91
83664;BME280;73634;47.068;15.426;2024-02-04T03:04:21;97933.00;;;2.74;79.32
83664;BME280;73634;47.068;15.426;2024-02-04T03:06:46;97931.34;;;2.80;78.74
83664;BME280;73634;47.068;15.426;2024-02-04T03:09:11;97929.63;;;2.92;78.09
83664;BME280;73634;47.068;15.426;2024-02-04T03:11:38;97944.59;;;2.95;77.83
83664;BME280;73634;47.068;15.426;2024-02-04T03:14:03;97948.75;;;2.96;77.86
83664;BME280;73634;47.068;15.426;2024-02-04T03:16:28;97952.53;;;2.93;77.98
83664;BME280;73634;47.068;15.426;2024-02-04T03:18:54;97946.03;;;2.91;77.91
83664;BME280;73634;47.068;15.426;2024-02-04T03:21:19;97935.47;;;2.99;77.42
83664;BME280;73634;47.068;15.426;2024-02-04T03:25:11;97929.09;;;3.01;77.64
83664;BME280;73634;47.068;15.426;2024-02-04T03:27:39;97931.97;;;2.93;77.78
83664;BME280;73634;47.068;15.426;2024-02-04T03:30:05;97915.91;;;2.98;78.14
83664;BME280;73634;47.068;15.426;2024-02-04T03:32:31;97909.13;;;3.04;77.64
83664;BME280;73634;47.068;15.426;2024-02-04T03:35:00;97910.13;;;3.03;77.37
83664;BME280;73634;47.068;15.426;2024-02-04T03:37:25;97906.97;;;3.00;77.55
83664;BME280;73634;47.068;15.426;2024-02-04T03:39:50;97909.75;;;2.99;77.64
83664;BME280;73634;47.068;15.426;2024-02-04T03:42:16;97906.19;;;3.00;77.47
83664;BME280;73634;47.068;15.426;2024-02-04T03:44:43;97903.28;;;2.96;77.27
83664;BME280;73634;47.068;15.426;2024-02-04T03:49:08;97894.41;;;2.92;77.65
83664;BME280;73634;47.068;15.426;2024-02-04T03:51:33;97903.78;;;2.87;78.39
83664;BME280;73634;47.068;15.426;2024-02-04T03:53:58;97897.41;;;2.89;77.76
83664;BME280;73634;47.068;15.426;2024-02-04T03:56:24;97892.63;;;2.93;78.52
83664;BME280;73634;47.068;15.426;2024-02-04T03:58:49;97896.78;;;2.94;78.05
83664;BME280;73634;47.068;15.426;2024-02-04T04:01:16;97905.06;;;2.96;77.97
83664;BME280;73634;47.068;15.426;2024-02-04T04:03:42;97916.69;;;2.98;77.72
83664;BME280;73634;47.068;15.426;2024-02-04T04:06:09;97919.81;;;3.00;77.75
83664;BME280;73634;47.068;15.426;2024-02-04T04:08:35;97928.31;;;3.01;77.77
83664;BME280;73634;47.068;15.426;2024-02-04T04:13:37;97916.47;;;3.00;78.04
83664;BME280;73634;47.068;15.426;2024-02-04T04:16:04;97915.69;;;2.99;77.82
83664;BME280;73634;47.068;15.426;2024-02-04T04:18:29;97924.41;;;2.98;77.77
83664;BME280;73634;47.068;15.426;2024-02-04T04:20:55;97928.81;;;2.91;77.81
83664;BME280;73634;47.068;15.426;2024-02-04T04:23:21;97923.75;;;2.85;77.81
83664;BME280;73634;47.068;15.426;2024-02-04T04:25:46;97931.63;;;2.90;77.40
83664;BME280;73634;47.068;15.426;2024-02-04T04:28:11;97941.31;;;2.88;77.77
83664;BME280;73634;47.068;15.426;2024-02-04T04:30:37;97931.31;;;2.98;76.88
83664;BME280;73634;47.068;15.426;2024-02-04T04:33:02;97933.75;;;2.93;76.87
83664;BME280;73634;47.068;15.426;2024-02-04T04:38:03;97929.31;;;3.00;77.32
83664;BME280;73634;47.068;15.426;2024-02-04T04:40:29;97934.03;;;3.03;76.94
83664;BME280;73634;47.068;15.426;2024-02-04T04:42:54;97933.03;;;3.04;76.42
83664;BME280;73634;47.068;15.426;2024-02-04T04:45:19;97913.75;;;3.13;76.62
83664;BME280;73634;47.068;15.426;2024-02-04T04:47:46;97908.69;;;3.07;76.91
83664;BME280;73634;47.068;15.426;2024-02-04T04:50:12;97921.53;;;3.07;77.33
83664;BME280;73634;47.068;15.426;2024-02-04T04:52:37;97915.31;;;3.14;76.30
83664;BME280;73634;47.068;15.426;2024-02-04T04:55:03;97931.41;;;3.10;76.43
83664;BME280;73634;47.068;15.426;2024-02-04T04:57:28;97931.59;;;3.08;76.98
83664;BME280;73634;47.068;15.426;2024-02-04T05:03:29;97924.91;;;3.07;77.16
83664;BME280;73634;47.068;15.426;2024-02-04T05:05:54;97927.69;;;3.06;76.76
83664;BME280;73634;47.068;15.426;2024-02-04T05:08:19;97922.75;;;3.04;76.58
83664;BME280;73634;47.068;15.426;2024-02-04T05:10:45;97918.19;;;3.06;76.31
83664;BME280;73634;47.068;15.426;2024-02-04T05:13:10;97944.97;;;2.98;77.58
83664;BME280;73634;47.068;15.426;2024-02-04T05:15:35;97941.53;;;3.05;76.58
83664;BME280;73634;47.068;15.426;2024-02-04T05:18:01;97961.38;;;2.97;77.29
83664;BME280;73634;47.068;15.426;2024-02-04T05:20:26;97950.09;;;2.98;77.14
83664;BME280;73634;47.068;15.426;2024-02-04T05:22:53;97950.47;;;3.02;76.94
83664;BME280;73634;47.068;15.426;2024-02-04T05:27:55;97943.88;;;3.06;76.66
83664;BME280;73634;47.068;15.426;2024-02-04T05:30:20;97941.41;;;2.99;77.30
83664;BME280;73634;47.068;15.426;2024-02-04T05:32:46;97930.81;;;3.08;76.94
83664;BME280;73634;47.068;15.426;2024-02-04T05:35:11;97928.69;;;3.05;76.81
83664;BME280;73634;47.068;15.426;2024-02-04T05:37:36;97925.97;;;2.99;77.01
83664;BME280;73634;47.068;15.426;2024-02-04T05:40:03;97930.81;;;2.89;77.18
83664;BME280;73634;47.068;15.426;2024-02-04T05:42:29;97928.06;;;2.73;77.35
83664;BME280;73634;47.068;15.426;2024-02-04T05:44:56;97940.19;;;2.65;78.08
83664;BME280;73634;47.068;15.426;2024-02-04T05:47:22;97949.06;;;2.45;78.25
83664;BME280;73634;47.068;15.426;2024-02-04T05:49:47;97964.69;;;2.25;78.86
83664;BME280;73634;47.068;15.426;2024-02-04T05:54:21;97957.44;;;1.90;79.94
83664;BME280;73634;47.068;15.426;2024-02-04T05:56:46;97950.09;;;1.69;81.24
83664;BME280;73634;47.068;15.426;2024-02-04T05:59:12;97954.91;;;1.59;81.20
83664;BME280;73634;47.068;15.426;2024-02-04T06:01:37;97955.63;;;1.66;81.38
83664;BME280;73634;47.068;15.426;2024-02-04T06:04:03;97975.28;;;1.79;80.93
83664;BME280;73634;47.068;15.426;2024-02-04T06:06:28;97959.03;;;1.91;80.44
83664;BME280;73634;47.068;15.426;2024-02-04T06:08:54;97963.13;;;1.99;80.27
83664;BME280;73634;47.068;15.426;2024-02-04T06:11:19;97954.72;;;2.10;80.26
83664;BME280;73634;47.068;15.426;2024-02-04T06:13:45;97950.31;;;2.17;79.48
83664;BME280;73634;47.068;15.426;2024-02-04T06:16:10;97963.53;;;2.21;79.56
83664;BME280;73634;47.068;15.426;2024-02-04T06:20:03;97984.59;;;2.29;78.59
83664;BME280;73634;47.068;15.426;2024-02-04T06:22:28;97969.13;;;2.36;79.11
83664;BME280;73634;47.068;15.426;2024-02-04T06:24:54;97969.09;;;2.61;80.08
83664;BME280;73634;47.068;15.426;2024-02-04T06:27:19;97963.94;;;2.61;78.51
83664;BME280;73634;47.068;15.426;2024-02-04T06:29:44;97955.66;;;2.59;78.84
83664;BME280;73634;47.068;15.426;2024-02-04T06:32:10;97960.22;;;2.57;78.23
83664;BME280;73634;47.068;15.426;2024-02-04T06:34:35;97978.78;;;2.59;78.27
83664;BME280;73634;47.068;15.426;2024-02-04T06:37:01;97989.38;;;2.69;78.48
83664;BME280;73634;47.068;15.426;2024-02-04T06:39:27;97985.78;;;2.88;77.47
83664;BME280;73634;47.068;15.426;2024-02-04T06:44:28;97992.53;;;3.38;75.19
83664;BME280;73634;47.068;15.426;2024-02-04T06:46:54;98001.47;;;3.35;75.19
83664;BME280;73634;47.068;15.426;2024-02-04T06:49:19;98012.69;;;3.41;75.15
83664;BME280;73634;47.068;15.426;2024-02-04T06:51:45;98001.06;;;4.21;73.96
83664;BME280;73634;47.068;15.426;2024-02-04T06:54:10;97984.06;;;5.59;66.89
83664;BME280;73634;47.068;15.426;2024-02-04T06:56:36;97985.69;;;5.65;67.92
83664;BME280;73634;47.068;15.426;2024-02-04T06:59:02;98018.03;;;5.96;64.51
83664;BME280;73634;47.068;15.426;2024-02-04T07:01:27;97996.22;;;5.75;65.82
83664;BME280;73634;47.068;15.426;2024-02-04T07:03:53;97984.97;;;4.49;69.75
83664;BME280;73634;47.068;15.426;2024-02-04T07:08:10;98026.09;;;3.91;72.71
83664;BME280;73634;47.068;15.426;2024-02-04T07:10:35;98028.09;;;3.89;73.29
83664;BME280;73634;47.068;15.426;2024-02-04T07:13:01;98029.97;;;3.82;73.11
83664;BME280;73634;47.068;15.426;2024-02-04T07:15:26;98026.78;;;4.10;72.44
83664;BME280;73634;47.068;15.426;2024-02-04T07:17:51;98017.31;;;4.22;72.45
83664;BME280;73634;47.068;15.426;2024-02-04T07:20:17;98012.75;;;4.71;71.07
83664;BME280;73634;47.068;15.426;2024-02-04T07:22:43;98015.63;;;5.09;68.41
83664;BME280;73634;47.068;15.426;2024-02-04T07:25:08;98014.16;;;5.13;67.89
83664;BME280;73634;47.068;15.426;2024-02-04T07:27:34;98014.56;;;5.22;68.87
83664;BME280;73634;47.068;15.426;2024-02-04T07:29:59;98009.47;;;5.50;66.88
83664;BME280;73634;47.068;15.426;2024-02-04T07:35:02;97980.44;;;5.60;66.88
83664;BME280;73634;47.068;15.426;2024-02-04T07:37:27;97972.09;;;5.69;65.72
83664;BME280;73634;47.068;15.426;2024-02-04T07:39:53;97974.75;;;5.58;65.49
83664;BME280;73634;47.068;15.426;2024-02-04T07:42:18;97992.41;;;5.49;66.34
83664;BME280;73634;47.068;15.426;2024-02-04T07:44:43;98018.09;;;5.16;68.55
83664;BME280;73634;47.068;15.426;2024-02-04T07:47:09;98013.09;;;4.74;70.08
83664;BME280;73634;47.068;15.426;2024-02-04T07:49:34;98026.06;;;4.44;71.53
83664;BME280;73634;47.068;15.426;2024-02-04T07:52:00;98020.69;;;4.81;69.54
83664;BME280;73634;47.068;15.426;2024-02-04T07:54:25;98031.00;;;4.34;71.55
83664;BME280;73634;47.068;15.426;2024-02-04T07:59:28;98021.44;;;7.46;63.18
83664;BME280;73634;47.068;15.426;2024-02-04T08:01:53;98014.72;;;10.38;52.08
83664;BME280;73634;47.068;15.426;2024-02-04T08:04:19;98023.03;;;10.45;50.96
83664;BME280;73634;47.068;15.426;2024-02-04T08:06:44;98013.28;;;11.12;49.10
83664;BME280;73634;47.068;15.426;2024-02-04T08:09:10;97995.91;;;11.51;48.46
83664;BME280;73634;47.068;15.426;2024-02-04T08:11:35;97981.75;;;13.74;42.54
83664;BME280;73634;47.068;15.426;2024-02-04T08:14:00;97973.47;;;15.32;38.42
83664;BME280;73634;47.068;15.426;2024-02-04T08:16:26;97995.22;;;14.64;39.04
83664;BME280;73634;47.068;15.426;2024-02-04T08:18:51;97982.53;;;13.74;41.64
83664;BME280;73634;47.068;15.426;2024-02-04T08:21:17;97975.25;;;13.71;41.51
83664;BME280;73634;47.068;15.426;2024-02-04T08:26:14;97974.03;;;17.43;34.15
83664;BME280;73634;47.068;15.426;2024-02-04T08:28:40;97972.69;;;18.61;31.98
83664;BME280;73634;47.068;15.426;2024-02-04T08:31:05;97970.31;;;20.55;28.17
83664;BME280;73634;47.068;15.426;2024-02-04T08:33:31;97977.16;;;19.49;29.44
83664;BME280;73634;47.068;15.426;2024-02-04T08:35:56;97981.91;;;21.64;26.99
83664;BME280;73634;47.068;15.426;2024-02-04T08:38:22;97976.00;;;22.39;25.84
83664;BME280;73634;47.068;15.426;2024-02-04T08:40:47;97964.38;;;22.75;25.10
83664;BME280;73634;47.068;15.426;2024-02-04T08:43:12;97962.13;;;20.36;27.74
83664;BME280;73634;47.068;15.426;2024-02-04T08:45:38;97977.16;;;18.98;30.09
83664;BME280;73634;47.068;15.426;2024-02-04T08:50:40;97964.91;;;19.23;29.48
83664;BME280;73634;47.068;15.426;2024-02-04T08:53:06;97973.91;;;18.63;31.23
83664;BME280;73634;47.068;15.426;2024-02-04T08:55:31;97982.66;;;17.34;33.17
83664;BME280;73634;47.068;15.426;2024-02-04T08:57:57;98005.09;;;16.84;34.67
83664;BME280;73634;47.068;15.426;2024-02-04T09:00:22;97985.00;;;18.14;32.14
83664;BME280;73634;47.068;15.426;2024-02-04T09:02:48;97998.53;;;16.42;35.85
83664;BME280;73634;47.068;15.426;2024-02-04T09:05:13;97992.06;;;16.17;35.92
83664;BME280;73634;47.068;15.426;2024-02-04T09:07:41;97987.38;;;15.69;36.41
83664;BME280;73634;47.068;15.426;2024-02-04T09:10:07;97967.59;;;15.13;38.02
83664;BME280;73634;47.068;15.426;2024-02-04T09:14:51;97964.81;;;16.97;35.05
83664;BME280;73634;47.068;15.426;2024-02-04T09:17:16;97985.25;;;17.09;34.74
83664;BME280;73634;47.068;15.426;2024-02-04T09:19:41;97993.53;;;12.33;44.86
83664;BME280;73634;47.068;15.426;2024-02-04T09:22:07;97986.34;;;12.49;44.65
83664;BME280;73634;47.068;15.426;2024-02-04T09:24:32;97987.84;;;15.21;39.49
83664;BME280;73634;47.068;15.426;2024-02-04T09:26:58;97970.34;;;19.89;30.47
83664;BME280;73634;47.068;15.426;2024-02-04T09:29:23;97963.28;;;20.72;28.45
83664;BME280;73634;47.068;15.426;2024-02-04T09:31:49;97966.06;;;19.14;30.66
83664;BME280;73634;47.068;15.426;2024-02-04T09:34:15;97953.38;;;20.23;29.49
83664;BME280;73634;47.068;15.426;2024-02-04T09:39:31;97966.59;;;20.69;28.11
83664;BME280;73634;47.068;15.426;2024-02-04T09:41:57;97954.38;;;23.73;23.66
83664;BME280;73634;47.068;15.426;2024-02-04T09:44:23;97956.38;;;25.13;21.59
83664;BME280;73634;47.068;15.426;2024-02-04T09:46:48;97947.13;;;26.01;20.83
83664;BME280;73634;47.068;15.426;2024-02-04T09:49:14;97949.38;;;25.95;20.73
83664;BME280;73634;47.068;15.426;2024-02-04T09:51:40;97955.56;;;23.21;23.26
83664;BME280;73634;47.068;15.426;2024-02-04T09:54:06;97964.16;;;21.00;26.70
83664;BME280;73634;47.068;15.426;2024-02-04T09:56:34;97958.69;;;23.62;23.59
83664;BME280;73634;47.068;15.426;2024-02-04T09:59:01;97952.41;;;21.78;24.86
83664;BME280;73634;47.068;15.426;2024-02-04T10:03:58;97959.97;;;24.75;22.50
83664;BME280;73634;47.068;15.426;2024-02-04T10:06:24;97955.84;;;24.78;21.23
83664;BME280;73634;47.068;15.426;2024-02-04T10:08:50;97969.97;;;21.42;25.83
83664;BME280;73634;47.068;15.426;2024-02-04T10:11:15;97965.34;;;21.39;26.05
83664;BME280;73634;47.068;15.426;2024-02-04T10:13:45;97965.09;;;23.42;24.09
83664;BME280;73634;47.068;15.426;2024-02-04T10:16:14;97958.53;;;23.36;23.71
83664;BME280;73634;47.068;15.426;2024-02-04T10:18:44;97955.88;;;21.66;26.25
83664;BME280;73634;47.068;15.426;2024-02-04T10:21:17;97963.16;;;20.11;28.29
83664;BME280;73634;47.068;15.426;2024-02-04T10:23:43;97950.66;;;19.87;28.84
83664;BME280;73634;47.068;15.426;2024-02-04T10:28:24;97938.59;;;24.03;23.15
83664;BME280;73634;47.068;15.426;2024-02-04T10:30:50;97943.47;;;25.45;21.65
83664;BME280;73634;47.068;15.426;2024-02-04T10:33:15;97925.94;;;22.06;25.73
83664;BME280;73634;47.068;15.426;2024-02-04T10:35:42;97925.16;;;24.87;22.13
83664;BME280;73634;47.068;15.426;2024-02-04T10:38:08;97915.28;;;25.78;21.00
83664;BME280;73634;47.068;15.426;2024-02-04T10:40:33;97907.84;;;26.31;20.27
83664;BME280;73634;47.068;15.426;2024-02-04T10:43:04;97906.47;;;26.11;20.51
83664;BME280;73634;47.068;15.426;2024-02-04T10:45:32;97899.84;;;26.93;19.95
83664;BME280;73634;47.068;15.426;2024-02-04T10:50:37;97889.53;;;28.88;17.68
83664;BME280;73634;47.068;15.426;2024-02-04T10:53:05;97885.44;;;29.64;17.16
83664;BME280;73634;47.068;15.426;2024-02-04T10:55:39;97875.00;;;26.78;19.83
83664;BME280;73634;47.068;15.426;2024-02-04T10:58:06;97881.22;;;28.33;18.45
83664;BME280;73634;47.068;15.426;2024-02-04T11:00:32;97873.19;;;28.23;18.33
83664;BME280;73634;47.068;15.426;2024-02-04T11:02:58;97877.81;;;26.01;20.55
83664;BME280;73634;47.068;15.426;2024-02-04T11:05:24;97875.44;;;28.10;18.57
83664;BME280;73634;47.068;15.426;2024-02-04T11:07:51;97885.97;;;29.27;17.53
83664;BME280;73634;47.068;15.426;2024-02-04T11:10:16;97872.19;;;26.13;19.72
83664;BME280;73634;47.068;15.426;2024-02-04T11:15:21;97865.06;;;24.86;20.83
83664;BME280;73634;47.068;15.426;2024-02-04T11:24:00;97863.56;;;27.79;18.61
83664;BME280;73634;47.068;15.426;2024-02-04T11:26:30;97852.00;;;24.02;22.63
83664;BME280;73634;47.068;15.426;2024-02-04T11:28:55;97826.41;;;27.35;18.94
83664;BME280;73634;47.068;15.426;2024-02-04T11:31:21;97831.28;;;27.04;19.61
83664;BME280;73634;47.068;15.426;2024-02-04T11:33:50;97821.56;;;27.79;18.49
83664;BME280;73634;47.068;15.426;2024-02-04T11:39:19;97827.56;;;32.75;13.80
83664;BME280;73634;47.068;15.426;2024-02-04T11:41:49;97824.00;;;29.18;16.66
83664;BME280;73634;47.068;15.426;2024-02-04T11:44:25;97820.41;;;27.77;18.27
83664;BME280;73634;47.068;15.426;2024-02-04T11:46:51;97818.50;;;28.06;17.82
83664;BME280;73634;47.068;15.426;2024-02-04T11:49:18;97818.78;;;28.79;17.50
83664;BME280;73634;47.068;15.426;2024-02-04T11:51:48;97813.53;;;28.11;17.27
83664;BME280;73634;47.068;15.426;2024-02-04T11:54:16;97815.63;;;24.85;21.53
83664;BME280;73634;47.068;15.426;2024-02-04T11:56:43;97820.88;;;24.78;21.82
83664;BME280;73634;47.068;15.426;2024-02-04T11:59:08;97804.69;;;23.23;23.71
83664;BME280;73634;47.068;15.426;2024-02-04T12:03:46;97801.34;;;21.43;26.42
83664;BME280;73634;47.068;15.426;2024-02-04T12:06:11;97797.63;;;21.91;26.00
83664;BME280;73634;47.068;15.426;2024-02-04T12:08:40;97794.34;;;20.82;27.41
83664;BME280;73634;47.068;15.426;2024-02-04T12:11:06;97790.50;;;23.35;24.10
83664;BME280;73634;47.068;15.426;2024-02-04T12:13:32;97779.53;;;24.28;22.62
83664;BME280;73634;47.068;15.426;2024-02-04T12:15:59;97775.53;;;23.46;23.70
83664;BME280;73634;47.068;15.426;2024-02-04T12:18:25;97784.56;;;22.84;25.20
83664;BME280;73634;47.068;15.426;2024-02-04T12:20:51;97764.81;;;25.68;21.10
83664;BME280;73634;47.068;15.426;2024-02-04T12:23:17;97763.44;;;27.41;18.86
83664;BME280;73634;47.068;15.426;2024-02-04T12:28:00;97765.16;;;20.26;27.34
83664;BME280;73634;47.068;15.426;2024-02-04T12:30:29;97766.00;;;19.70;28.69
83664;BME280;73634;47.068;15.426;2024-02-04T12:32:56;97748.69;;;20.70;27.64
83664;BME280;73634;47.068;15.426;2024-02-04T12:35:22;97745.72;;;22.37;25.29
83664;BME280;73634;47.068;15.426;2024-02-04T12:37:52;97737.13;;;25.80;20.81
83664;BME280;73634;47.068;15.426;2024-02-04T12:40:23;97742.72;;;24.60;22.06
83664;BME280;73634;47.068;15.426;2024-02-04T12:43:00;97745.94;;;22.67;24.03
83664;BME280;73634;47.068;15.426;2024-02-04T12:45:27;97759.34;;;23.32;23.58
83664;BME280;73634;47.068;15.426;2024-02-04T12:47:54;97752.69;;;23.42;23.42
83664;BME280;73634;47.068;15.426;2024-02-04T12:52:07;97732.81;;;22.36;24.67
83664;BME280;73634;47.068;15.426;2024-02-04T12:54:43;97732.94;;;24.68;21.82
83664;BME280;73634;47.068;15.426;2024-02-04T12:57:09;97727.03;;;25.15;21.36
83664;BME280;73634;47.068;15.426;2024-02-04T12:59:37;97716.59;;;26.49;19.56
83664;BME280;73634;47.068;15.426;2024-02-04T13:02:04;97722.81;;;21.19;25.54
83664;BME280;73634;47.068;15.426;2024-02-04T13:04:40;97720.78;;;20.08;27.44
83664;BME280;73634;47.068;15.426;2024-02-04T13:07:11;97713.78;;;20.64;27.15
83664;BME280;73634;47.068;15.426;2024-02-04T13:09:43;97716.16;;;21.25;26.27
83664;BME280;73634;47.068;15.426;2024-02-04T13:12:10;97714.81;;;20.35;27.22
83664;BME280;73634;47.068;15.426;2024-02-04T13:17:11;97700.81;;;21.93;25.38
83664;BME280;73634;47.068;15.426;2024-02-04T13:19:38;97696.69;;;25.26;21.44
83664;BME280;73634;47.068;15.426;2024-02-04T13:22:07;97691.38;;;25.26;21.15
83664;BME280;73634;47.068;15.426;2024-02-04T13:24:35;97696.81;;;24.67;21.50
83664;BME280;73634;47.068;15.426;2024-02-04T13:27:01;97689.41;;;25.64;20.62
83664;BME280;73634;47.068;15.426;2024-02-04T13:29:27;97707.13;;;23.40;23.24
83664;BME280;73634;47.068;15.426;2024-02-04T13:31:52;97703.03;;;21.28;25.87
83664;BME280;73634;47.068;15.426;2024-02-04T13:34:18;97697.41;;;21.61;25.82
83664;BME280;73634;47.068;15.426;2024-02-04T13:36:44;97687.88;;;21.57;25.29
83664;BME280;73634;47.068;15.426;2024-02-04T13:41:47;97673.06;;;19.88;27.47
83664;BME280;73634;47.068;15.426;2024-02-04T13:44:12;97672.97;;;21.68;25.46
83664;BME280;73634;47.068;15.426;2024-02-04T13:46:37;97684.31;;;20.78;26.25
83664;BME280;73634;47.068;15.426;2024-02-04T13:49:07;97676.56;;;20.05;27.56
83664;BME280;73634;47.068;15.426;2024-02-04T13:51:33;97671.00;;;22.32;24.73
83664;BME280;73634;47.068;15.426;2024-02-04T13:53:58;97680.34;;;22.64;23.79
83664;BME280;73634;47.068;15.426;2024-02-04T13:56:24;97670.94;;;18.46;29.86
83664;BME280;73634;47.068;15.426;2024-02-04T13:58:49;97671.72;;;17.76;31.27
83664;BME280;73634;47.068;15.426;2024-02-04T14:01:15;97671.50;;;18.60;29.95
83664;BME280;73634;47.068;15.426;2024-02-04T14:06:27;97679.13;;;21.41;25.78
83664;BME280;73634;47.068;15.426;2024-02-04T14:08:52;97670.59;;;21.63;24.95
83664;BME280;73634;47.068;15.426;2024-02-04T14:11:18;97669.72;;;20.84;26.31
83664;BME280;73634;47.068;15.426;2024-02-04T14:13:43;97672.84;;;20.46;27.28
83664;BME280;73634;47.068;15.426;2024-02-04T14:16:09;97672.81;;;20.86;26.62
83664;BME280;73634;47.068;15.426;2024-02-04T14:18:34;97670.06;;;21.26;26.34